Contact Info

Augusta Flying Club, Inc

KDNL 181953Z AUTO 00000KT 10SM CLR 12/M06 A3015 RMK AO2 SLP210 T01221056


TAF KDNL 181729Z 1818/1918 29008KT P6SM SKC FM182300 12004KT P6SM SCT250 FM191200 20005KT P6SM BKN250

info@augustaflyingclub.com

Send us a message